createdAt,value
2023-05-18T00:00:11.588Z,100.00
2023-05-18T00:02:40.832Z,100.00
2023-05-18T00:05:10.363Z,100.00
2023-05-18T00:07:41.172Z,100.00
2023-05-18T00:10:11.652Z,100.00
2023-05-18T00:12:40.230Z,100.00
2023-05-18T00:15:10.520Z,100.00
2023-05-18T00:17:39.466Z,100.00
2023-05-18T00:20:10.327Z,100.00
2023-05-18T00:22:42.825Z,100.00
2023-05-18T00:25:11.578Z,100.00
2023-05-18T00:27:40.371Z,100.00
2023-05-18T00:30:09.944Z,100.00
2023-05-18T00:32:38.522Z,100.00
2023-05-18T00:35:07.790Z,100.00
2023-05-18T00:37:36.503Z,100.00
2023-05-18T00:40:07.905Z,100.00
2023-05-18T00:42:36.489Z,100.00
2023-05-18T00:45:05.858Z,100.00
2023-05-18T00:47:34.608Z,100.00
2023-05-18T00:50:03.524Z,100.00
2023-05-18T00:52:33.117Z,100.00
2023-05-18T00:55:01.761Z,100.00
2023-05-18T00:57:32.248Z,100.00
2023-05-18T01:00:01.522Z,100.00
2023-05-18T01:02:30.671Z,100.00
2023-05-18T01:05:00.737Z,100.00
2023-05-18T01:07:29.404Z,100.00
2023-05-18T01:09:58.406Z,100.00
2023-05-18T01:12:35.793Z,100.00
2023-05-18T01:15:09.812Z,100.00
2023-05-18T01:17:47.464Z,100.00
2023-05-18T01:20:33.621Z,100.00
2023-05-18T01:23:54.921Z,100.00
2023-05-18T01:26:30.166Z,100.00
2023-05-18T01:29:01.278Z,100.00
2023-05-18T01:31:31.077Z,100.00
2023-05-18T01:33:59.700Z,100.00
2023-05-18T01:36:28.686Z,100.00
2023-05-18T01:39:01.491Z,100.00
2023-05-18T01:41:33.475Z,100.00
2023-05-18T01:44:07.305Z,100.00
2023-05-18T01:46:41.166Z,100.00
2023-05-18T01:49:18.217Z,100.00
2023-05-18T01:51:48.139Z,100.00
2023-05-18T01:54:20.693Z,100.00
2023-05-18T01:56:53.899Z,100.00
2023-05-18T01:59:25.038Z,100.00
2023-05-18T02:01:59.107Z,100.00
2023-05-18T02:04:28.610Z,100.00
2023-05-18T02:06:57.807Z,100.00
2023-05-18T02:09:26.493Z,100.00
2023-05-18T02:11:56.476Z,100.00
2023-05-18T02:14:29.824Z,100.00
2023-05-18T02:16:58.337Z,100.00
2023-05-18T02:19:26.860Z,100.00
2023-05-18T02:21:56.192Z,100.00
2023-05-18T02:24:24.857Z,100.00
2023-05-18T02:26:53.412Z,100.00
2023-05-18T02:29:23.403Z,100.00
2023-05-18T02:31:52.047Z,100.00
2023-05-18T02:34:22.016Z,100.00
2023-05-18T02:36:50.580Z,100.00
2023-05-18T02:39:19.512Z,100.00
2023-05-18T02:41:48.112Z,100.00
2023-05-18T02:44:16.784Z,100.00
2023-05-18T02:46:46.731Z,100.00
2023-05-18T02:49:15.535Z,100.00
2023-05-18T02:51:44.601Z,100.00
2023-05-18T02:54:13.839Z,100.00
2023-05-18T02:56:43.858Z,100.00
2023-05-18T02:59:21.119Z,100.00
2023-05-18T03:01:51.901Z,100.00
2023-05-18T03:04:26.155Z,100.00
2023-05-18T03:06:57.471Z,100.00
2023-05-18T03:09:26.563Z,100.00
2023-05-18T03:11:56.754Z,100.00
2023-05-18T03:14:25.471Z,100.00
2023-05-18T03:16:58.187Z,100.00
2023-05-18T03:19:28.075Z,100.00
2023-05-18T03:21:57.898Z,100.00
2023-05-18T03:24:30.430Z,100.00
2023-05-18T03:27:01.020Z,100.00
2023-05-18T03:29:31.488Z,100.00
2023-05-18T03:32:03.129Z,100.00
2023-05-18T03:34:31.822Z,100.00
2023-05-18T03:37:00.857Z,100.00
2023-05-18T03:39:30.668Z,100.00
2023-05-18T03:41:59.233Z,100.00
2023-05-18T03:44:27.928Z,100.00
2023-05-18T03:46:57.201Z,100.00
2023-05-18T03:49:27.057Z,100.00
2023-05-18T03:51:56.455Z,100.00
2023-05-18T03:54:25.212Z,100.00
2023-05-18T03:56:54.263Z,100.00
2023-05-18T03:59:23.111Z,100.00
2023-05-18T04:01:53.884Z,100.00
2023-05-18T04:04:27.302Z,100.00
2023-05-18T04:06:57.613Z,100.00
2023-05-18T04:09:28.209Z,100.00
2023-05-18T04:11:56.838Z,100.00
2023-05-18T04:14:28.210Z,100.00
2023-05-18T04:16:58.380Z,100.00
2023-05-18T04:19:27.015Z,100.00
2023-05-18T04:21:57.002Z,100.00
2023-05-18T04:24:26.841Z,100.00
2023-05-18T04:26:59.436Z,100.00
2023-05-18T04:29:29.101Z,100.00
2023-05-18T04:32:01.176Z,100.00
2023-05-18T04:34:31.488Z,100.00
2023-05-18T04:37:05.499Z,100.00
2023-05-18T04:39:35.301Z,100.00
2023-05-18T04:42:09.265Z,100.00
2023-05-18T04:44:39.118Z,100.00
2023-05-18T04:47:08.838Z,100.00
2023-05-18T04:49:38.701Z,100.00
2023-05-18T04:52:10.415Z,100.00
2023-05-18T04:54:41.178Z,100.00
2023-05-18T04:57:10.287Z,100.00
2023-05-18T04:59:38.897Z,100.00
2023-05-18T05:02:08.184Z,100.00
2023-05-18T05:04:36.844Z,100.00
2023-05-18T05:07:05.941Z,100.00
2023-05-18T05:09:35.990Z,100.00
2023-05-18T05:12:05.072Z,100.00
2023-05-18T05:14:33.677Z,100.00
2023-05-18T05:17:02.282Z,100.00
2023-05-18T05:19:33.894Z,100.00
2023-05-18T05:22:02.552Z,100.00
2023-05-18T05:24:31.523Z,100.00
2023-05-18T05:27:01.449Z,100.00
2023-05-18T05:29:29.969Z,100.00
2023-05-18T05:31:59.344Z,100.00
2023-05-18T05:34:28.598Z,100.00
2023-05-18T05:36:58.020Z,100.00
2023-05-18T05:39:30.224Z,100.00
2023-05-18T05:41:58.796Z,100.00
2023-05-18T05:44:29.061Z,100.00
2023-05-18T05:46:57.563Z,100.00
2023-05-18T05:49:26.937Z,100.00
2023-05-18T05:51:55.666Z,100.00
2023-05-18T05:54:24.298Z,100.00
2023-05-18T05:56:53.033Z,100.00
2023-05-18T05:59:22.378Z,100.00
2023-05-18T06:01:52.496Z,100.00
2023-05-18T06:04:22.152Z,100.00
2023-05-18T06:06:51.193Z,100.00
2023-05-18T06:09:19.765Z,100.00
2023-05-18T06:11:48.812Z,100.00
2023-05-18T06:14:17.329Z,100.00
2023-05-18T06:16:46.325Z,100.00
2023-05-18T06:19:16.992Z,100.00
2023-05-18T06:21:45.575Z,100.00
2023-05-18T06:24:14.566Z,100.00
2023-05-18T06:26:55.620Z,100.00
2023-05-18T06:29:42.942Z,100.00
2023-05-18T06:32:46.877Z,100.00
2023-05-18T06:35:17.206Z,100.00
2023-05-18T06:37:47.075Z,100.00
2023-05-18T06:40:16.156Z,100.00
2023-05-18T06:42:44.940Z,100.00
2023-05-18T06:45:26.910Z,100.00
2023-05-18T06:48:01.275Z,100.00
2023-05-18T06:50:32.628Z,100.00
2023-05-18T06:53:04.613Z,100.00
2023-05-18T06:55:33.300Z,100.00
2023-05-18T06:58:02.841Z,100.00
2023-05-18T07:00:31.512Z,100.00
2023-05-18T07:03:00.215Z,100.00
2023-05-18T07:05:30.295Z,100.00
2023-05-18T07:08:00.532Z,100.00
2023-05-18T07:10:29.070Z,100.00
2023-05-18T07:12:58.045Z,100.00
2023-05-18T07:15:27.053Z,100.00
2023-05-18T07:17:55.730Z,100.00
2023-05-18T07:20:26.460Z,100.00
2023-05-18T07:22:56.308Z,100.00
2023-05-18T07:25:27.092Z,100.00
2023-05-18T07:27:56.702Z,100.00
2023-05-18T07:30:26.462Z,100.00
2023-05-18T07:32:56.751Z,100.00
2023-05-18T07:35:28.379Z,100.00
2023-05-18T07:37:57.535Z,100.00
2023-05-18T07:40:27.912Z,100.00
2023-05-18T07:42:59.288Z,100.00
2023-05-18T07:45:28.189Z,100.00
2023-05-18T07:47:57.810Z,100.00
2023-05-18T07:50:26.944Z,100.00
2023-05-18T07:52:55.549Z,100.00
2023-05-18T07:55:24.235Z,100.00
2023-05-18T07:57:54.486Z,100.00
2023-05-18T08:00:23.565Z,100.00
2023-05-18T08:02:53.097Z,100.00
2023-05-18T08:05:22.799Z,100.00
2023-05-18T08:07:54.034Z,100.00
2023-05-18T08:10:22.990Z,100.00
2023-05-18T08:12:51.988Z,100.00
2023-05-18T08:15:25.103Z,100.00
2023-05-18T08:17:55.234Z,100.00
2023-05-18T08:20:25.753Z,100.00
2023-05-18T08:22:56.347Z,100.00
2023-05-18T08:25:26.690Z,100.00
2023-05-18T08:27:55.532Z,100.00
2023-05-18T08:30:26.908Z,100.00
2023-05-18T08:32:55.698Z,100.00
2023-05-18T08:35:24.517Z,100.00
2023-05-18T08:37:53.309Z,100.00
2023-05-18T08:40:22.743Z,100.00
2023-05-18T08:42:59.348Z,100.00
2023-05-18T08:45:39.837Z,100.00
2023-05-18T08:48:10.749Z,100.00
2023-05-18T08:50:45.005Z,100.00
2023-05-18T08:53:14.478Z,100.00
2023-05-18T08:55:45.023Z,100.00
2023-05-18T08:58:17.047Z,100.00
2023-05-18T09:00:47.181Z,100.00
2023-05-18T09:03:15.891Z,100.00
2023-05-18T09:05:44.687Z,100.00
2023-05-18T09:08:14.285Z,100.00
2023-05-18T09:10:42.891Z,100.00
2023-05-18T09:13:13.522Z,100.00
2023-05-18T09:15:42.187Z,100.00
2023-05-18T09:18:12.328Z,100.00
2023-05-18T09:20:41.147Z,100.00
2023-05-18T09:23:11.982Z,100.00
2023-05-18T09:25:44.810Z,100.00
2023-05-18T09:28:14.873Z,100.00
2023-05-18T09:30:48.120Z,100.00
2023-05-18T09:33:21.709Z,100.00
2023-05-18T09:35:51.990Z,100.00
2023-05-18T09:38:23.395Z,100.00
2023-05-18T09:40:52.332Z,100.00
2023-05-18T09:43:22.007Z,100.00
2023-05-18T09:45:50.903Z,100.00
2023-05-18T09:48:24.844Z,100.00
2023-05-18T09:50:53.898Z,100.00
2023-05-18T09:53:22.495Z,100.00
2023-05-18T09:55:51.474Z,100.00
2023-05-18T09:58:20.108Z,100.00
2023-05-18T10:00:51.833Z,100.00
2023-05-18T10:03:24.010Z,100.00
2023-05-18T10:05:53.279Z,100.00
2023-05-18T10:08:21.962Z,100.00
2023-05-18T10:10:51.045Z,100.00
2023-05-18T10:13:20.060Z,100.00
2023-05-18T10:15:50.851Z,100.00
2023-05-18T10:18:25.081Z,100.00
2023-05-18T10:20:55.968Z,100.00
2023-05-18T10:23:27.945Z,100.00
2023-05-18T10:25:56.429Z,100.00
2023-05-18T10:28:28.970Z,100.00
2023-05-18T10:30:59.180Z,100.00
2023-05-18T10:33:32.057Z,100.00
2023-05-18T10:36:03.822Z,100.00
2023-05-18T10:38:34.220Z,100.00
2023-05-18T10:41:03.848Z,100.00
2023-05-18T10:43:35.306Z,100.00
2023-05-18T10:46:04.184Z,100.00
2023-05-18T10:48:39.627Z,100.00
2023-05-18T10:51:08.992Z,100.00
2023-05-18T10:53:40.262Z,100.00
2023-05-18T10:56:09.195Z,100.00
2023-05-18T10:58:39.749Z,100.00
2023-05-18T11:01:11.532Z,100.00
2023-05-18T11:03:42.179Z,100.00
2023-05-18T11:06:12.956Z,100.00
2023-05-18T11:08:48.225Z,100.00
2023-05-18T11:11:19.473Z,100.00
2023-05-18T11:13:50.599Z,100.00
2023-05-18T11:16:19.953Z,100.00
2023-05-18T11:18:51.390Z,100.00
2023-05-18T11:21:32.522Z,100.00
2023-05-18T11:24:24.907Z,100.00
2023-05-18T11:26:55.189Z,100.00
2023-05-18T11:29:26.004Z,100.00
2023-05-18T11:31:55.946Z,100.00
2023-05-18T11:34:48.164Z,100.00
2023-05-18T11:37:18.931Z,100.00
2023-05-18T11:39:59.708Z,100.00
2023-05-18T11:42:34.595Z,100.00
2023-05-18T11:45:11.140Z,100.00
2023-05-18T11:47:41.551Z,100.00
2023-05-18T11:50:13.181Z,100.00
2023-05-18T11:52:48.065Z,100.00
2023-05-18T11:55:19.281Z,100.00
2023-05-18T11:57:52.560Z,100.00
2023-05-18T12:00:22.618Z,100.00
2023-05-18T12:02:52.720Z,100.00
2023-05-18T12:05:23.353Z,100.00
2023-05-18T12:07:54.683Z,100.00
2023-05-18T12:10:23.921Z,100.00
2023-05-18T12:12:54.079Z,100.00
2023-05-18T12:15:24.026Z,100.00
2023-05-18T12:17:53.225Z,100.00
2023-05-18T12:20:25.161Z,100.00
2023-05-18T12:22:55.975Z,100.00
2023-05-18T12:25:26.735Z,100.00
2023-05-18T12:27:56.926Z,100.00
2023-05-18T12:30:34.847Z,100.00
2023-05-18T12:33:04.621Z,100.00
2023-05-18T12:35:34.900Z,100.00
2023-05-18T12:38:03.597Z,100.00
2023-05-18T12:40:44.446Z,100.00
2023-05-18T12:43:14.143Z,100.00
2023-05-18T12:45:45.631Z,100.00
2023-05-18T12:48:15.070Z,100.00
2023-05-18T12:50:55.593Z,100.00
2023-05-18T12:53:24.564Z,100.00
2023-05-18T12:56:04.301Z,100.00
2023-05-18T12:58:33.037Z,100.00
2023-05-18T13:01:08.930Z,100.00
2023-05-18T13:03:40.803Z,100.00
2023-05-18T13:06:11.229Z,100.00
2023-05-18T13:08:39.879Z,100.00
2023-05-18T13:11:14.809Z,100.00
2023-05-18T13:13:59.165Z,100.00
2023-05-18T13:16:30.132Z,100.00
2023-05-18T13:19:00.686Z,100.00
2023-05-18T13:21:31.241Z,100.00
2023-05-18T13:23:59.839Z,100.00
2023-05-18T13:26:28.656Z,100.00
2023-05-18T13:28:58.488Z,100.00
2023-05-18T13:31:27.245Z,100.00
2023-05-18T13:33:55.907Z,100.00
2023-05-18T13:36:24.617Z,100.00
2023-05-18T13:38:54.643Z,100.00
2023-05-18T13:41:23.478Z,100.00
2023-05-18T13:43:52.281Z,100.00
2023-05-18T13:46:21.035Z,100.00
2023-05-18T13:48:49.553Z,100.00
2023-05-18T13:51:21.023Z,100.00
2023-05-18T13:53:49.621Z,100.00
2023-05-18T13:56:19.630Z,100.00
2023-05-18T13:58:50.174Z,100.00
2023-05-18T14:01:19.055Z,100.00
2023-05-18T14:03:47.751Z,100.00
2023-05-18T14:06:17.149Z,97.98
2023-05-18T14:08:45.686Z,100.00
2023-05-18T14:11:14.355Z,100.00
2023-05-18T14:13:44.222Z,100.00
2023-05-18T14:16:12.846Z,100.00
2023-05-18T14:18:41.449Z,100.00
2023-05-18T14:21:10.005Z,100.00
2023-05-18T14:23:38.600Z,100.00
2023-05-18T14:26:07.317Z,100.00
2023-05-18T14:28:36.025Z,100.00
2023-05-18T14:31:06.134Z,100.00
2023-05-18T14:33:34.742Z,100.00
2023-05-18T14:36:03.288Z,100.00
2023-05-18T14:38:31.852Z,100.00
2023-05-18T14:41:00.329Z,100.00
2023-05-18T14:43:28.866Z,98.13
2023-05-18T14:46:08.175Z,92.39
2023-05-18T14:48:38.921Z,97.31
2023-05-18T14:51:07.573Z,99.75
2023-05-18T14:53:36.086Z,100.00
2023-05-18T14:56:08.469Z,100.00
2023-05-18T14:58:37.569Z,100.00
2023-05-18T15:01:06.261Z,100.00
2023-05-18T15:03:35.094Z,99.57
2023-05-18T15:06:05.427Z,100.00
2023-05-18T15:08:34.052Z,100.00
2023-05-18T15:11:02.680Z,100.00
2023-05-18T15:13:31.927Z,100.00
2023-05-18T15:16:00.707Z,97.23
2023-05-18T15:18:29.321Z,98.77
2023-05-18T15:20:57.907Z,94.37
2023-05-18T15:23:27.845Z,96.56
2023-05-18T15:25:56.699Z,98.57
2023-05-18T15:28:25.438Z,98.91
2023-05-18T15:30:54.555Z,98.72
2023-05-18T15:33:23.148Z,98.00
2023-05-18T15:35:51.794Z,95.91
2023-05-18T15:38:20.521Z,97.07
2023-05-18T15:40:51.258Z,94.89
2023-05-18T15:43:22.461Z,94.29
2023-05-18T15:45:51.834Z,92.09
2023-05-18T15:48:20.392Z,93.89
2023-05-18T15:50:49.058Z,95.28
2023-05-18T15:53:17.764Z,95.86
2023-05-18T15:55:46.321Z,96.80
2023-05-18T15:58:16.422Z,95.26
2023-05-18T16:00:45.821Z,95.93
2023-05-18T16:03:14.484Z,96.69
2023-05-18T16:05:43.102Z,96.26
2023-05-18T16:08:11.773Z,96.48
2023-05-18T16:10:40.440Z,96.53
2023-05-18T16:13:09.038Z,96.45
2023-05-18T16:15:39.083Z,90.97
2023-05-18T16:18:07.860Z,88.92
2023-05-18T16:20:36.433Z,88.11
2023-05-18T16:23:05.063Z,86.99
2023-05-18T16:25:33.671Z,87.76
2023-05-18T16:28:02.215Z,89.43
2023-05-18T16:30:30.973Z,91.25
2023-05-18T16:33:01.143Z,90.97
2023-05-18T16:35:31.837Z,90.59
2023-05-18T16:38:00.490Z,90.19
2023-05-18T16:40:29.084Z,87.73
2023-05-18T16:42:57.754Z,84.83
2023-05-18T16:45:27.903Z,84.87
2023-05-18T16:47:56.797Z,86.52
2023-05-18T16:50:27.905Z,85.92
2023-05-18T16:52:56.683Z,80.56
2023-05-18T16:55:25.834Z,80.26
2023-05-18T16:57:54.434Z,81.87
2023-05-18T17:00:23.551Z,83.84
2023-05-18T17:02:53.413Z,84.43
2023-05-18T17:05:23.063Z,83.50
2023-05-18T17:07:53.906Z,84.28
2023-05-18T17:10:22.918Z,82.72
2023-05-18T17:12:51.799Z,80.42
2023-05-18T17:15:20.595Z,81.87
2023-05-18T17:17:49.318Z,80.03
2023-05-18T17:20:17.998Z,79.95
2023-05-18T17:22:47.234Z,81.67
2023-05-18T17:25:17.354Z,79.60
2023-05-18T17:27:46.208Z,80.33
2023-05-18T17:30:15.181Z,81.37
2023-05-18T17:32:50.806Z,82.09
2023-05-18T17:35:19.909Z,82.44
2023-05-18T17:37:48.938Z,78.35
2023-05-18T17:40:19.092Z,76.48
2023-05-18T17:42:47.782Z,78.14
2023-05-18T17:45:18.180Z,74.58
2023-05-18T17:47:47.128Z,77.34
2023-05-18T17:50:15.742Z,77.16
2023-05-18T17:52:44.650Z,77.40
2023-05-18T17:55:15.015Z,78.19
2023-05-18T17:57:46.942Z,76.48
2023-05-18T18:00:17.609Z,77.95
2023-05-18T18:02:46.367Z,79.07
2023-05-18T18:05:15.048Z,79.16
2023-05-18T18:07:43.696Z,79.48
2023-05-18T18:10:12.746Z,78.76
2023-05-18T18:12:41.634Z,78.93
2023-05-18T18:15:13.427Z,79.31
2023-05-18T18:17:42.044Z,80.07
2023-05-18T18:20:13.794Z,79.37
2023-05-18T18:22:42.570Z,79.20
2023-05-18T18:25:11.387Z,79.96
2023-05-18T18:27:40.197Z,79.86
2023-05-18T18:30:09.822Z,79.94
2023-05-18T18:32:39.873Z,80.27
2023-05-18T18:35:09.242Z,80.58
2023-05-18T18:37:38.541Z,80.71
2023-05-18T18:40:08.473Z,81.55
2023-05-18T18:42:37.048Z,81.53
2023-05-18T18:45:06.651Z,81.11
2023-05-18T18:47:35.415Z,81.49
2023-05-18T18:50:06.782Z,81.48
2023-05-18T18:52:35.534Z,81.72
2023-05-18T18:55:04.892Z,82.04
2023-05-18T18:57:34.277Z,81.98
2023-05-18T19:00:03.143Z,82.01
2023-05-18T19:02:32.135Z,82.45
2023-05-18T19:05:01.916Z,82.31
2023-05-18T19:07:32.057Z,82.60
2023-05-18T19:10:00.750Z,82.68
2023-05-18T19:12:29.333Z,82.75
2023-05-18T19:14:58.209Z,82.73
2023-05-18T19:17:27.041Z,83.08
2023-05-18T19:19:55.786Z,83.10
2023-05-18T19:22:24.564Z,83.21
2023-05-18T19:24:54.665Z,83.54
2023-05-18T19:27:23.339Z,83.52
2023-05-18T19:29:52.314Z,83.76
2023-05-18T19:32:21.292Z,83.89
2023-05-18T19:34:49.951Z,83.97
2023-05-18T19:37:18.994Z,84.22
2023-05-18T19:39:47.987Z,84.68
2023-05-18T19:42:18.612Z,85.13
2023-05-18T19:44:47.772Z,85.31
2023-05-18T19:47:16.942Z,85.70
2023-05-18T19:49:46.353Z,85.67
2023-05-18T19:52:17.521Z,85.86
2023-05-18T19:54:46.254Z,86.15
2023-05-18T19:57:14.841Z,86.31
2023-05-18T19:59:44.832Z,86.81
2023-05-18T20:02:13.431Z,86.81
2023-05-18T20:04:43.266Z,87.13
2023-05-18T20:07:12.872Z,87.36
2023-05-18T20:09:41.797Z,87.87
2023-05-18T20:12:10.588Z,87.85
2023-05-18T20:14:39.647Z,88.36
2023-05-18T20:17:09.701Z,88.39
2023-05-18T20:19:45.461Z,88.67
2023-05-18T20:22:14.040Z,88.72
2023-05-18T20:24:44.566Z,88.93
2023-05-18T20:27:15.150Z,89.28
2023-05-18T20:29:51.079Z,89.31
2023-05-18T20:32:21.201Z,89.56
2023-05-18T20:34:49.871Z,89.88
2023-05-18T20:37:19.623Z,90.15
2023-05-18T20:39:51.003Z,89.81
2023-05-18T20:42:22.090Z,90.19
2023-05-18T20:44:52.567Z,90.42
2023-05-18T20:47:22.796Z,90.68
2023-05-18T20:49:59.112Z,90.97
2023-05-18T20:52:27.658Z,90.89
2023-05-18T20:54:56.343Z,91.35
2023-05-18T20:57:24.824Z,91.73
2023-05-18T20:59:53.350Z,91.60
2023-05-18T21:02:23.455Z,91.86
2023-05-18T21:04:52.626Z,92.18
2023-05-18T21:07:21.215Z,92.11
2023-05-18T21:09:49.743Z,92.24
2023-05-18T21:12:18.289Z,92.51
2023-05-18T21:14:46.936Z,92.55
2023-05-18T21:17:18.452Z,92.94
2023-05-18T21:19:48.456Z,93.49
2023-05-18T21:22:17.012Z,93.34
2023-05-18T21:24:45.660Z,93.61
2023-05-18T21:27:14.268Z,93.53
2023-05-18T21:29:43.426Z,93.63
2023-05-18T21:32:12.063Z,93.83
2023-05-18T21:34:42.815Z,94.18
2023-05-18T21:37:13.911Z,94.57
2023-05-18T21:39:44.005Z,94.57
2023-05-18T21:42:12.545Z,95.07
2023-05-18T21:44:41.085Z,94.98
2023-05-18T21:47:10.080Z,95.22
2023-05-18T21:49:38.680Z,95.57
2023-05-18T21:52:07.227Z,95.47
2023-05-18T21:54:40.472Z,95.53
2023-05-18T21:57:09.372Z,95.86
2023-05-18T21:59:37.953Z,95.78
2023-05-18T22:02:06.765Z,96.19
2023-05-18T22:04:35.435Z,96.26
2023-05-18T22:07:04.198Z,96.07
2023-05-18T22:09:32.735Z,96.51
2023-05-18T22:12:02.640Z,96.76
2023-05-18T22:14:31.508Z,97.02
2023-05-18T22:17:00.301Z,97.19
2023-05-18T22:19:29.214Z,97.36
2023-05-18T22:21:57.896Z,97.54
2023-05-18T22:24:26.714Z,97.83
2023-05-18T22:26:55.255Z,97.81
2023-05-18T22:29:25.679Z,98.21
2023-05-18T22:31:54.318Z,98.43
2023-05-18T22:34:22.866Z,98.43
2023-05-18T22:36:51.444Z,98.64
2023-05-18T22:39:19.988Z,98.95
2023-05-18T22:41:48.428Z,98.82
2023-05-18T22:44:17.042Z,99.20
2023-05-18T22:46:47.273Z,99.40
2023-05-18T22:49:16.146Z,99.62
2023-05-18T22:51:45.790Z,99.72
2023-05-18T22:54:14.395Z,100.00
2023-05-18T22:56:43.165Z,99.90
2023-05-18T22:59:11.989Z,100.00
2023-05-18T23:01:40.711Z,100.00
2023-05-18T23:04:13.186Z,100.00
2023-05-18T23:06:42.296Z,100.00
2023-05-18T23:09:10.847Z,100.00
2023-05-18T23:11:39.946Z,100.00
2023-05-18T23:14:09.987Z,100.00
2023-05-18T23:16:42.557Z,100.00
2023-05-18T23:19:13.751Z,100.00
2023-05-18T23:21:42.387Z,100.00
2023-05-18T23:24:12.217Z,100.00
2023-05-18T23:26:42.388Z,100.00
2023-05-18T23:29:11.261Z,100.00
2023-05-18T23:31:39.806Z,100.00
2023-05-18T23:34:08.900Z,100.00
2023-05-18T23:36:42.577Z,100.00
2023-05-18T23:39:11.908Z,100.00
2023-05-18T23:41:41.503Z,100.00
2023-05-18T23:44:10.635Z,100.00
2023-05-18T23:46:40.076Z,100.00
2023-05-18T23:49:09.406Z,100.00
2023-05-18T23:51:40.325Z,100.00
2023-05-18T23:54:09.896Z,100.00
2023-05-18T23:56:38.895Z,100.00
2023-05-18T23:59:07.946Z,100.00
